Time;durP1;ratioP1;P1;durP2;ratioP2;P2;SDS_P1;SDS_P2;PMS_P1;PMS_P2;Temp;Humidity;BMP_temperature;BMP_pressure;BME280_temperature;BME280_humidity;BME280_pressure;Samples;Min_cycle;Max_cycle;Signal;HPM_P1;HPM_P2
2022/09/15 00:01:08;;;;;;;1.53;1.47;;;19.00;99.90;;;20.04;100.00;99511.09;4983521;28;21199;-65
2022/09/15 00:03:36;;;;;;;1.60;1.50;;;19.00;99.90;;;20.02;100.00;99509.66;4971386;28;20709;-67
2022/09/15 00:06:04;;;;;;;1.47;1.37;;;19.00;99.90;;;19.97;100.00;99509.47;4969846;28;21066;-66
2022/09/15 00:08:31;;;;;;;1.37;1.30;;;19.00;99.90;;;19.91;100.00;99508.41;4971419;28;20619;-67
2022/09/15 00:11:16;;;;;;;3.03;1.40;;;19.00;99.90;;;19.87;100.00;99501.88;4977246;28;20638;-68
2022/09/15 00:13:44;;;;;;;3.20;1.60;;;19.00;99.90;;;19.83;100.00;99502.47;4984094;28;20662;-67
2022/09/15 00:16:12;;;;;;;1.43;1.40;;;18.90;99.90;;;19.81;100.00;99502.66;4982440;28;20702;-68
2022/09/15 00:18:41;;;;;;;4.33;1.60;;;18.90;99.90;;;19.69;100.00;99498.94;4986398;28;20663;-67
2022/09/15 00:21:15;;;;;;;5.10;1.53;;;18.80;99.90;;;19.78;100.00;99500.41;4972483;28;20670;-67
2022/09/15 00:23:43;;;;;;;2.50;1.80;;;18.90;99.90;;;19.85;100.00;99490.66;4971443;28;20667;-67
2022/09/15 00:26:12;;;;;;;1.50;1.40;;;18.90;99.90;;;19.64;100.00;99482.81;4971126;28;21038;-68
2022/09/15 00:28:40;;;;;;;1.20;1.20;;;18.80;99.90;;;19.72;100.00;99479.22;4971226;28;20698;-67
2022/09/15 00:31:12;;;;;;;1.30;1.27;;;18.80;99.90;;;19.63;100.00;99480.38;4983094;28;20627;-67
2022/09/15 00:33:40;;;;;;;1.20;1.20;;;18.80;99.90;;;19.52;100.00;99487.03;4984451;28;20658;-67
2022/09/15 00:36:10;;;;;;;1.20;1.20;;;18.70;99.90;;;19.53;100.00;99478.09;4976226;28;20685;-67
2022/09/15 00:38:38;;;;;;;1.50;1.40;;;18.70;99.90;;;19.63;100.00;99472.44;4980538;28;20672;-66
2022/09/15 00:41:08;;;;;;;3.70;1.50;;;18.70;99.90;;;19.49;100.00;99474.19;4971421;28;20616;-67
2022/09/15 00:43:46;;;;;;;1.40;1.37;;;18.70;99.90;;;19.51;100.00;99485.41;4981588;28;20654;-66
2022/09/15 00:46:21;;;;;;;1.70;1.60;;;18.70;99.90;;;19.54;100.00;99473.63;4986466;28;20632;-67
2022/09/15 00:49:00;;;;;;;1.87;1.77;;;18.70;99.90;;;19.51;100.00;99474.00;4987187;28;20618;-65
2022/09/15 00:51:36;;;;;;;1.70;1.60;;;18.60;99.90;;;19.70;100.00;99470.66;4979084;28;20635;-64
2022/09/15 00:54:11;;;;;;;1.27;1.27;;;18.70;99.90;;;19.72;100.00;99472.06;4969957;28;20674;-64
2022/09/15 00:56:40;;;;;;;1.30;1.20;;;18.70;99.90;;;19.64;100.00;99479.34;4971165;28;20634;-64
2022/09/15 00:59:14;;;;;;;1.67;1.43;;;18.70;99.90;;;19.75;100.00;99473.50;4972167;28;20674;-64
2022/09/15 01:01:42;;;;;;;1.50;1.40;;;18.80;99.90;;;19.63;100.00;99472.44;4969175;28;20638;-64
2022/09/15 01:04:09;;;;;;;2.97;1.57;;;18.70;99.90;;;19.63;100.00;99473.28;4979410;28;20655;-64
2022/09/15 01:06:51;;;;;;;1.40;1.40;;;18.70;99.90;;;19.68;100.00;99476.13;4990431;28;20657;-64
2022/09/15 01:09:43;;;;;;;5.43;1.50;;;18.70;99.90;;;19.58;100.00;99465.09;4986295;28;20642;-64
2022/09/15 01:12:10;;;;;;;2.73;1.63;;;18.70;99.90;;;19.50;100.00;99478.50;4980299;28;20634;-64
2022/09/15 01:14:36;;;;;;;4.30;1.60;;;18.70;99.90;;;19.54;100.00;99473.63;4971456;28;20694;-64
2022/09/15 01:17:39;;;;;;;2.00;1.57;;;18.70;99.90;;;19.52;100.00;99473.00;4970150;28;20671;-64
2022/09/15 01:20:47;;;;;;;4.80;1.57;;;18.70;99.90;;;19.36;100.00;99468.81;4991785;28;20622;-64
2022/09/15 01:23:50;;;;;;;1.80;1.70;;;18.60;99.90;;;19.37;100.00;99470.47;4993167;28;21253;-64
2022/09/15 01:26:26;;;;;;;2.77;1.73;;;18.60;99.90;;;19.39;100.00;99471.09;4990833;28;21174;-64
2022/09/15 01:29:27;;;;;;;1.77;1.67;;;18.60;99.90;;;19.50;100.00;99472.38;4975873;28;20611;-64
2022/09/15 01:35:07;;;;;;;7.03;1.70;;;18.60;99.90;;;19.30;100.00;99466.94;4975087;28;20698;-64
2022/09/15 01:37:42;;;;;;;2.27;1.83;;;18.50;99.90;;;19.32;100.00;99463.09;4974140;28;20675;-64
2022/09/15 01:40:11;;;;;;;1.93;1.60;;;18.50;99.90;;;19.36;100.00;99462.75;4973939;28;20627;-64
2022/09/15 01:42:42;;;;;;;2.13;1.90;;;18.50;99.90;;;19.38;100.00;99455.44;4973259;28;20635;-64
2022/09/15 01:45:22;;;;;;;2.30;2.20;;;18.60;99.90;;;19.48;100.00;99459.34;4972094;28;20707;-61
2022/09/15 01:47:53;;;;;;;1.90;1.70;;;18.60;99.90;;;19.57;100.00;99463.44;4977631;28;20619;-67
2022/09/15 01:50:26;;;;;;;1.80;1.70;;;18.70;99.90;;;19.61;100.00;99467.38;4972377;28;21036;-67
2022/09/15 01:52:58;;;;;;;2.47;2.00;;;18.60;99.90;;;19.66;100.00;99467.56;4984864;28;20741;-67
2022/09/15 01:56:09;;;;;;;1.90;1.80;;;18.70;99.90;;;19.60;100.00;99455.13;4992688;28;20630;-67
2022/09/15 01:58:40;;;;;;;1.60;1.57;;;18.70;99.90;;;19.74;100.00;99456.03;4976944;28;20705;-67
2022/09/15 02:01:17;;;;;;;2.10;1.90;;;18.80;99.90;;;19.77;100.00;99456.44;4973110;28;21159;-67
2022/09/15 02:03:50;;;;;;;2.00;1.90;;;18.80;99.90;;;19.64;100.00;99459.00;4986802;28;20666;-67
2022/09/15 02:06:24;;;;;;;1.70;1.60;;;18.70;99.90;;;19.74;100.00;99451.53;4992727;28;20614;-66
2022/09/15 02:09:01;;;;;;;1.87;1.87;;;18.80;99.90;;;19.76;100.00;99448.69;4991679;28;20638;-66
2022/09/15 02:11:29;;;;;;;1.70;1.60;;;18.80;99.90;;;19.71;100.00;99444.00;4993552;28;20649;-67
2022/09/15 02:14:11;;;;;;;2.40;2.30;;;18.80;99.90;;;19.75;100.00;99444.41;4986323;28;20671;-67
2022/09/15 02:16:44;;;;;;;2.07;1.97;;;18.80;99.90;;;19.84;100.00;99438.75;4974267;28;20627;-67
2022/09/15 02:19:40;;;;;;;2.37;2.17;;;18.80;99.90;;;19.85;100.00;99444.84;4987864;28;20635;-67
2022/09/15 02:22:26;;;;;;;1.93;1.80;;;18.90;99.90;;;19.89;100.00;99438.97;4987268;28;20693;-66
2022/09/15 02:25:08;;;;;;;2.67;2.47;;;18.90;99.90;;;19.96;100.00;99438.97;4974203;28;20619;-64
2022/09/15 02:27:43;;;;;;;2.97;2.77;;;18.90;99.90;;;19.95;100.00;99443.44;4971563;28;20643;-65
2022/09/15 02:30:14;;;;;;;2.57;2.37;;;18.90;99.90;;;19.99;100.00;99436.78;4972272;28;20661;-64
2022/09/15 02:32:51;;;;;;;3.47;2.63;;;19.00;99.90;;;20.08;100.00;99435.56;4972974;28;20713;-64
2022/09/15 02:35:18;;;;;;;3.07;2.40;;;19.00;99.90;;;20.04;100.00;99439.63;5004741;28;20635;-64
2022/09/15 02:37:45;;;;;;;2.50;2.40;;;19.10;99.90;;;20.11;100.00;99440.47;4986065;28;21227;-64
2022/09/15 02:40:12;;;;;;;2.73;2.53;;;19.10;99.90;;;20.07;100.00;99439.22;4973124;28;20651;-64
2022/09/15 02:42:41;;;;;;;3.33;3.03;;;19.10;99.90;;;20.03;100.00;99443.31;4971413;28;21271;-63
2022/09/15 02:45:08;;;;;;;2.80;2.60;;;19.10;99.90;;;20.04;100.00;99441.44;4973141;28;20619;-65
2022/09/15 02:47:35;;;;;;;2.97;2.77;;;19.00;99.90;;;20.09;100.00;99445.16;4980359;28;20698;-64
2022/09/15 02:50:02;;;;;;;3.73;3.10;;;19.00;99.90;;;20.07;100.00;99438.41;4988643;28;20693;-64
2022/09/15 02:52:29;;;;;;;2.63;2.43;;;19.00;99.90;;;20.05;100.00;99435.97;4992710;28;20642;-65
2022/09/15 02:54:56;;;;;;;3.67;3.27;;;19.00;99.90;;;20.07;100.00;99443.72;4992741;28;21030;-64
2022/09/15 02:57:23;;;;;;;2.90;2.70;;;19.10;99.90;;;19.99;100.00;99436.78;4980374;28;20670;-65
2022/09/15 03:02:35;;;;;;;3.30;2.70;;;19.00;99.90;;;20.05;100.00;99441.28;4972268;28;20666;-64
2022/09/15 03:05:02;;;;;;;3.00;2.70;;;19.10;99.90;;;20.10;100.00;99453.91;4972637;28;20620;-65
2022/09/15 03:07:30;;;;;;;4.30;2.57;;;19.10;99.90;;;20.14;100.00;99461.22;4981361;28;20733;-65
2022/09/15 03:09:57;;;;;;;4.70;3.63;;;19.10;99.90;;;20.16;100.00;99452.28;4992284;28;21033;-66
2022/09/15 03:12:25;;;;;;;3.73;3.30;;;19.10;99.90;;;20.17;100.00;99454.72;4991843;28;20712;-66
2022/09/15 03:14:52;;;;;;;3.50;3.00;;;19.10;99.90;;;20.21;100.00;99463.94;4991037;28;20627;-65
2022/09/15 03:17:18;;;;;;;3.77;3.37;;;19.10;99.90;;;20.17;100.00;99461.88;4991194;28;21311;-65
2022/09/15 03:19:45;;;;;;;2.90;2.70;;;19.10;99.90;;;20.23;100.00;99463.75;4991501;28;20665;-67
2022/09/15 03:22:12;;;;;;;3.70;3.47;;;19.10;99.90;;;20.20;100.00;99464.09;4991564;28;20738;-65
2022/09/15 03:24:41;;;;;;;3.00;2.80;;;19.20;99.90;;;20.20;100.00;99470.25;4991383;28;20685;-65
2022/09/15 03:27:08;;;;;;;4.93;3.00;;;19.20;99.90;;;20.25;100.00;99467.03;4986896;28;20632;-67
2022/09/15 03:29:35;;;;;;;3.10;2.90;;;19.20;99.90;;;20.23;100.00;99463.75;4971928;28;20630;-65
2022/09/15 03:32:01;;;;;;;3.87;3.47;;;19.20;99.90;;;20.23;100.00;99464.53;4971909;28;21234;-65
2022/09/15 03:34:28;;;;;;;3.37;3.17;;;19.20;99.90;;;20.18;100.00;99460.84;4971620;28;20659;-66
2022/09/15 03:36:55;;;;;;;4.10;3.10;;;19.20;99.90;;;20.12;100.00;99455.31;4972220;28;20624;-65
2022/09/15 03:39:23;;;;;;;5.37;3.90;;;19.10;99.90;;;20.11;100.00;99450.22;4979873;28;20667;-65
2022/09/15 03:41:50;;;;;;;4.43;3.70;;;19.10;99.90;;;20.07;100.00;99457.78;4971759;28;21006;-66
2022/09/15 03:44:19;;;;;;;4.10;3.80;;;19.10;99.90;;;20.09;100.00;99462.84;4971291;28;20655;-66
2022/09/15 03:46:45;;;;;;;4.93;3.90;;;19.10;99.90;;;20.01;100.00;99457.75;4971954;28;20983;-68
2022/09/15 03:49:17;;;;;;;5.40;4.43;;;19.00;99.90;;;19.99;100.00;99476.50;4971970;28;21257;-65
2022/09/15 03:51:44;;;;;;;6.23;4.00;;;19.00;99.90;;;19.97;100.00;99493.56;4956055;28;21183;-67
2022/09/15 03:54:18;;;;;;;3.67;3.20;;;19.00;99.90;;;19.96;100.00;99495.41;4985073;28;20654;-66
2022/09/15 03:56:56;;;;;;;1.13;1.13;;;19.00;99.90;;;20.07;100.00;99501.97;4990798;28;20618;-65
2022/09/15 03:59:23;;;;;;;1.60;1.60;;;19.00;99.90;;;19.85;100.00;99503.91;4976262;28;20667;-67
2022/09/15 04:01:50;;;;;;;2.10;1.80;;;18.90;99.90;;;19.66;100.00;99496.69;4971123;28;21285;-66
2022/09/15 04:04:20;;;;;;;1.30;1.30;;;18.80;99.90;;;19.62;100.00;99513.97;4970935;28;21231;-67
2022/09/15 04:06:49;;;;;;;1.40;1.30;;;18.80;99.90;;;19.51;100.00;99506.56;4972590;28;20615;-67
2022/09/15 04:09:16;;;;;;;1.30;1.20;;;18.70;99.90;;;19.38;100.00;99506.47;4971610;28;21027;-66
2022/09/15 04:11:46;;;;;;;1.03;1.03;;;18.60;99.90;;;19.36;100.00;99511.16;4971739;28;20671;-67
2022/09/15 04:14:13;;;;;;;1.00;0.90;;;18.60;99.90;;;19.39;100.00;99518.72;4992849;28;21257;-66
2022/09/15 04:16:43;;;;;;;1.07;0.93;;;18.60;99.90;;;19.30;100.00;99514.53;4975256;28;20609;-66
2022/09/15 04:19:10;;;;;;;0.70;0.70;;;18.50;99.90;;;19.26;100.00;99515.94;4986857;28;20659;-66
2022/09/15 04:21:37;;;;;;;1.10;1.10;;;18.50;99.90;;;19.33;100.00;99519.44;4971464;28;20690;-67
2022/09/15 04:24:04;;;;;;;2.53;1.17;;;18.40;99.90;;;19.38;100.00;99514.41;4970906;28;20643;-66
2022/09/15 04:26:35;;;;;;;0.90;0.90;;;18.50;99.90;;;19.48;100.00;99514.91;4971681;28;20619;-65
2022/09/15 04:29:04;;;;;;;1.10;1.10;;;18.50;99.90;;;19.36;100.00;99527.00;4978625;28;20646;-65
2022/09/15 04:31:32;;;;;;;1.27;1.17;;;18.50;99.90;;;19.37;100.00;99526.03;4984793;28;20642;-65
2022/09/15 04:34:00;;;;;;;2.20;1.40;;;18.50;99.90;;;19.37;100.00;99533.94;4988784;28;20638;-64
2022/09/15 04:36:28;;;;;;;1.33;1.23;;;18.50;99.90;;;19.37;100.00;99530.47;4990090;28;20642;-64
2022/09/15 04:38:56;;;;;;;3.20;1.10;;;18.40;99.90;;;19.35;100.00;99528.03;4989485;28;20730;-66
2022/09/15 04:41:26;;;;;;;0.97;0.97;;;18.40;99.90;;;19.20;100.00;99538.69;4982371;28;20626;-65
2022/09/15 04:43:54;;;;;;;1.73;1.10;;;18.30;99.90;;;19.18;100.00;99529.31;4987100;28;20656;-65
2022/09/15 04:46:21;;;;;;;1.40;1.30;;;18.30;99.90;;;19.20;100.00;99530.75;4971450;28;20662;-65
2022/09/15 04:48:48;;;;;;;1.40;1.30;;;18.30;99.90;;;19.04;100.00;99530.19;4985481;28;20993;-66
2022/09/15 04:51:20;;;;;;;1.40;1.30;;;18.20;99.90;;;18.83;100.00;99532.84;4971045;28;21053;-65
2022/09/15 04:53:47;;;;;;;1.80;1.70;;;18.10;99.90;;;18.81;100.00;99540.16;4971556;28;20646;-65
2022/09/15 04:56:21;;;;;;;1.90;1.80;;;18.10;99.90;;;18.85;100.00;99530.84;4983334;28;20793;-66
2022/09/15 04:58:55;;;;;;;4.00;2.83;;;18.00;99.90;;;18.68;100.00;99532.91;4994271;28;21228;-66
2022/09/15 05:01:32;;;;;;;3.53;3.23;;;17.90;99.90;;;18.67;100.00;99533.13;4977453;28;21194;-65
2022/09/15 05:04:03;;;;;;;2.93;2.73;;;17.90;99.90;;;18.78;100.00;99536.09;4989621;28;20670;-67
2022/09/15 05:06:31;;;;;;;3.73;3.43;;;17.90;99.90;;;18.68;100.00;99534.72;4975014;28;20624;-66
2022/09/15 05:08:57;;;;;;;4.00;3.70;;;17.90;99.90;;;18.51;100.00;99537.63;4974986;28;20611;-65
2022/09/15 05:11:27;;;;;;;3.27;3.07;;;17.80;99.90;;;18.56;100.00;99543.19;4974930;28;20665;-65
2022/09/15 05:13:54;;;;;;;2.87;2.67;;;17.80;99.90;;;18.65;100.00;99556.25;4974628;28;21041;-65
2022/09/15 05:16:26;;;;;;;3.90;3.43;;;17.80;99.90;;;18.57;100.00;99550.09;4987604;28;20623;-65
2022/09/15 05:18:57;;;;;;;4.57;3.80;;;17.80;99.90;;;18.43;100.00;99550.94;4994167;28;20655;-65
2022/09/15 05:21:25;;;;;;;5.80;4.40;;;17.70;99.90;;;18.47;100.00;99567.25;4981444;28;20693;-65
2022/09/15 05:23:52;;;;;;;5.20;3.73;;;17.70;99.90;;;18.54;100.00;99574.25;5016808;23;20698;-68
2022/09/15 05:26:24;;;;;;;4.07;3.67;;;17.70;99.90;;;18.52;100.00;99565.69;5012744;28;20628;-69
2022/09/15 05:28:52;;;;;;;4.27;3.87;;;17.70;99.90;;;18.52;100.00;99555.13;5011457;28;21200;-70
2022/09/15 05:31:21;;;;;;;4.90;4.20;;;17.70;99.90;;;18.63;100.00;99564.38;5013575;28;20644;-69
2022/09/15 05:33:50;;;;;;;7.80;4.60;;;17.80;99.90;;;18.49;100.00;99578.44;5001809;28;20701;-69
2022/09/15 05:36:19;;;;;;;6.80;3.87;;;17.70;99.90;;;18.38;100.00;99597.34;4992687;28;20634;-69
2022/09/15 05:38:46;;;;;;;4.47;3.60;;;17.60;99.90;;;18.36;100.00;99594.91;4974431;28;20909;-69
2022/09/15 05:41:15;;;;;;;5.20;3.23;;;17.50;99.90;;;18.36;99.13;99600.19;4987176;28;20638;-68
2022/09/15 05:43:47;;;;;;;8.60;4.77;;;17.50;99.90;;;18.26;98.96;99601.50;4979093;28;21026;-69
2022/09/15 05:46:16;;;;;;;10.27;6.13;;;17.40;99.90;;;18.22;99.06;99600.22;4989309;28;20674;-69
2022/09/15 05:48:44;;;;;;;11.00;5.07;;;17.30;99.90;;;18.13;98.42;99611.88;4988557;28;20699;-69
2022/09/15 05:51:12;;;;;;;8.50;3.93;;;17.30;99.90;;;18.13;98.46;99614.50;4993663;28;20610;-69
2022/09/15 05:53:39;;;;;;;8.20;4.30;;;17.30;99.90;;;18.17;97.89;99618.41;5003634;28;20674;-69
2022/09/15 05:56:12;;;;;;;7.70;4.30;;;17.30;99.90;;;18.16;97.16;99625.53;4989155;28;20638;-70
2022/09/15 05:58:41;;;;;;;8.10;4.80;;;17.30;99.90;;;17.99;98.56;99618.81;4988316;28;20760;-69
2022/09/15 06:01:14;;;;;;;3.63;2.70;;;17.20;99.90;;;17.82;99.24;99620.78;4979516;28;20639;-69
2022/09/15 06:03:41;;;;;;;0.47;0.47;;;17.10;99.90;;;17.90;97.83;99619.88;4988157;28;20654;-69
2022/09/15 06:06:08;;;;;;;0.30;0.30;;;17.00;99.90;;;17.74;99.22;99622.69;4976090;28;20681;-68
2022/09/15 06:08:42;;;;;;;0.30;0.30;;;17.00;99.90;;;17.60;99.59;99612.94;4992791;28;20645;-69
2022/09/15 06:11:14;;;;;;;0.30;0.30;;;17.00;99.90;;;17.58;100.00;99625.50;4993506;28;20726;-69
2022/09/15 06:13:42;;;;;;;0.40;0.40;;;16.90;99.90;;;17.70;100.00;99618.75;4985711;28;20667;-68
2022/09/15 06:16:18;;;;;;;0.30;0.30;;;17.00;99.90;;;17.70;99.15;99627.50;4988586;28;20709;-70
2022/09/15 06:18:50;;;;;;;0.40;0.40;;;17.00;99.90;;;17.69;99.35;99623.25;4982549;28;20658;-69
2022/09/15 06:21:21;;;;;;;0.30;0.30;;;17.00;99.90;;;17.52;99.85;99627.03;5007747;28;20658;-68
2022/09/15 06:23:54;;;;;;;0.30;0.30;;;17.00;99.90;;;17.71;99.31;99631.81;4991506;28;20746;-69
2022/09/15 06:26:21;;;;;;;0.30;0.30;;;17.00;99.90;;;17.62;99.28;99618.84;4994022;28;20664;-69
2022/09/15 06:28:55;;;;;;;0.50;0.50;;;17.00;99.90;;;17.65;99.53;99631.69;4991978;28;20634;-68
2022/09/15 06:31:22;;;;;;;0.30;0.30;;;17.00;99.90;;;17.66;98.08;99633.31;4991515;28;20614;-70
2022/09/15 06:33:55;;;;;;;0.30;0.30;;;17.00;99.90;;;17.63;98.61;99644.25;4991093;28;20654;-70
2022/09/15 06:36:26;;;;;;;0.30;0.30;;;17.00;99.90;;;17.73;97.94;99642.16;4993927;28;20618;-68
2022/09/15 06:38:53;;;;;;;0.30;0.30;;;17.00;99.90;;;17.72;97.87;99653.69;4991109;28;20677;-69
2022/09/15 06:41:21;;;;;;;0.30;0.30;;;17.00;99.90;;;17.62;98.88;99663.69;4973389;28;20631;-70
2022/09/15 06:43:48;;;;;;;0.80;0.80;;;17.00;99.90;;;17.63;98.61;99679.34;4975591;28;20766;-69
2022/09/15 06:46:22;;;;;;;0.30;0.30;;;16.90;99.90;;;17.60;98.67;99684.16;4992291;28;20717;-69
2022/09/15 06:48:50;;;;;;;0.30;0.30;;;16.90;99.90;;;17.78;96.69;99679.38;4975260;28;20661;-69
2022/09/15 06:51:24;;;;;;;0.30;0.30;;;17.00;99.90;;;17.76;96.54;99691.91;4990242;28;20642;-69
2022/09/15 06:53:53;;;;;;;0.30;0.30;;;17.00;99.90;;;17.76;94.58;99691.91;4978713;28;20647;-68
2022/09/15 06:56:21;;;;;;;0.30;0.30;;;17.10;99.90;;;17.72;94.90;99701.19;4973501;28;20619;-69
2022/09/15 06:58:49;;;;;;;0.30;0.30;;;17.00;99.90;;;17.65;95.34;99701.06;4983163;28;20671;-70
2022/09/15 07:01:24;;;;;;;0.30;0.30;;;17.00;99.90;;;17.72;95.46;99706.47;4991685;28;21179;-69
2022/09/15 07:03:51;;;;;;;0.30;0.30;;;16.90;99.90;;;17.72;95.07;99709.09;4985913;28;20654;-70
2022/09/15 07:06:19;;;;;;;0.30;0.30;;;17.00;99.90;;;17.72;95.81;99699.38;4973749;28;20635;-68
2022/09/15 07:08:46;;;;;;;0.30;0.30;;;17.00;99.90;;;17.83;94.50;99706.03;4990262;28;21276;-69
2022/09/15 07:11:13;;;;;;;0.50;0.50;;;17.00;99.90;;;17.84;95.20;99710.34;4992477;28;20623;-68
2022/09/15 07:13:41;;;;;;;0.30;0.30;;;17.00;99.90;;;17.82;95.42;99718.41;4976213;28;20736;-69
2022/09/15 07:16:10;;;;;;;0.47;0.47;;;17.00;99.90;;;17.83;95.16;99727.97;4993371;28;20693;-68
2022/09/15 07:18:38;;;;;;;0.30;0.30;;;17.00;99.90;;;17.79;95.94;99712.69;4989688;28;20671;-69
2022/09/15 07:21:21;;;;;;;0.30;0.30;;;17.00;99.90;;;17.87;94.75;99731.06;4988361;28;20669;-69
2022/09/15 07:23:49;;;;;;;0.60;0.60;;;17.00;99.90;;;17.91;93.64;99727.06;4991201;28;20634;-68
2022/09/15 07:26:25;;;;;;;0.30;0.30;;;17.10;99.90;;;18.08;92.53;99728.56;4991616;28;20703;-69
2022/09/15 07:29:05;;;;;;;0.30;0.30;;;17.10;99.90;;;18.23;92.69;99731.25;4985535;28;20625;-69
2022/09/15 07:31:35;;;;;;;1.57;0.70;;;17.30;99.90;;;18.34;91.91;99736.88;4987694;28;20634;-69
2022/09/15 07:34:03;;;;;;;0.30;0.30;;;17.40;99.90;;;18.43;91.19;99729.69;4980530;28;20683;-67
2022/09/15 07:36:30;;;;;;;0.30;0.30;;;17.50;99.90;;;18.41;90.61;99731.69;4989946;28;21209;-69
2022/09/15 07:38:57;;;;;;;0.30;0.30;;;17.50;99.90;;;18.57;90.42;99744.75;4984352;28;21249;-69
2022/09/15 07:41:29;;;;;;;0.30;0.30;;;17.60;99.90;;;18.72;88.95;99736.84;4982668;28;20664;-68
2022/09/15 07:43:58;;;;;;;0.70;0.70;;;17.70;99.90;;;18.71;88.72;99743.09;4982381;28;20631;-69
2022/09/15 07:46:30;;;;;;;0.30;0.30;;;17.70;99.90;;;18.65;87.16;99746.50;4989622;28;21200;-69
2022/09/15 07:48:57;;;;;;;0.30;0.30;;;17.70;99.90;;;18.76;86.68;99744.19;4984724;28;20630;-69
2022/09/15 07:51:25;;;;;;;0.50;0.50;;;17.80;99.90;;;18.90;86.43;99753.09;4974124;28;20626;-68
2022/09/15 07:53:52;;;;;;;1.17;1.07;;;17.90;99.90;;;19.05;85.04;99753.91;4990028;28;20720;-67
2022/09/15 07:56:20;;;;;;;0.30;0.30;;;18.00;99.90;;;19.24;85.11;99751.50;4997941;28;20638;-67
2022/09/15 07:58:48;;;;;;;0.30;0.30;;;18.10;99.90;;;19.27;83.97;99751.09;4989677;28;20662;-67
2022/09/15 08:01:16;;;;;;;0.30;0.30;;;18.20;99.90;;;19.32;84.37;99748.72;4989494;28;20611;-67
2022/09/15 08:03:50;;;;;;;0.30;0.30;;;18.20;99.90;;;19.50;84.67;99753.63;4971522;28;20640;-67
2022/09/15 08:06:22;;;;;;;0.30;0.30;;;18.40;99.90;;;19.56;84.00;99752.03;4971894;28;20616;-67
2022/09/15 08:08:50;;;;;;;0.30;0.30;;;18.50;99.90;;;19.71;83.66;99750.97;4989585;28;20638;-67
2022/09/15 08:11:22;;;;;;;0.40;0.40;;;18.60;99.90;;;19.84;81.71;99753.75;4991014;28;20627;-67
2022/09/15 08:13:51;;;;;;;0.30;0.30;;;18.70;99.90;;;20.01;81.31;99751.63;4983225;28;20666;-66
2022/09/15 08:16:22;;;;;;;0.30;0.30;;;18.90;99.90;;;20.00;81.17;99753.47;4989331;28;20717;-67
2022/09/15 08:18:52;;;;;;;0.30;0.30;;;18.90;99.90;;;19.89;81.64;99759.28;4989903;28;20663;-67
2022/09/15 08:21:20;;;;;;;0.30;0.30;;;18.90;99.90;;;20.07;81.40;99764.09;4990891;28;20606;-66
2022/09/15 08:23:56;;;;;;;0.30;0.30;;;19.00;99.90;;;20.12;81.62;99769.66;4991212;28;20666;-66
2022/09/15 08:26:25;;;;;;;0.30;0.30;;;19.00;99.90;;;20.13;80.26;99764.16;4990819;28;20610;-66
2022/09/15 08:28:52;;;;;;;0.30;0.30;;;19.00;99.90;;;20.08;80.25;99768.41;4990037;28;20643;-67
2022/09/15 08:31:19;;;;;;;0.30;0.30;;;18.90;99.90;;;20.23;80.66;99773.63;4990820;28;21175;-66
2022/09/15 08:33:48;;;;;;;0.30;0.30;;;19.00;99.90;;;20.50;79.28;99778.94;4990890;28;20655;-66
2022/09/15 08:36:15;;;;;;;0.30;0.30;;;19.10;99.90;;;20.80;76.92;99784.81;4990002;28;20618;-66
2022/09/15 08:38:43;;;;;;;0.30;0.30;;;19.40;99.90;;;20.89;75.67;99784.44;4984199;28;21073;-65
2022/09/15 08:41:18;;;;;;;0.30;0.30;;;19.60;99.90;;;21.05;75.10;99796.56;4986793;28;20680;-66
2022/09/15 08:44:49;;;;;;;0.30;0.30;;;19.80;99.90;;;20.67;75.10;99785.56;4994855;28;20697;-66
2022/09/15 08:47:26;;;;;;;0.30;0.30;;;19.80;99.90;;;20.42;75.67;99778.25;4974069;28;20654;-66
2022/09/15 08:50:26;;;;;;;0.30;0.30;;;19.60;99.90;;;20.53;74.18;99783.03;4989922;28;20630;-65
2022/09/15 08:53:24;;;;;;;0.30;0.30;;;19.60;99.90;;;20.55;74.19;99781.00;4986871;28;20634;-65
2022/09/15 08:55:59;;;;;;;0.30;0.30;;;19.50;99.90;;;21.00;72.68;99787.56;4990443;28;20633;-66
2022/09/15 08:58:30;;;;;;;0.30;0.30;;;19.70;99.90;;;21.07;71.08;99786.59;4985948;28;20969;-66
2022/09/15 09:01:20;;;;;;;0.30;0.30;;;19.90;99.90;;;20.79;71.68;99799.06;4969829;28;20616;-66
2022/09/15 09:03:56;;;;;;;0.30;0.30;;;19.80;99.90;;;21.18;71.33;99801.94;5001697;28;20653;-67
2022/09/15 09:06:42;;;;;;;0.30;0.30;;;19.90;99.90;;;21.36;68.67;99804.06;4990258;28;20623;-67
2022/09/15 09:09:22;;;;;;;0.30;0.30;;;20.10;99.90;;;21.20;69.87;99799.91;4970864;28;20647;-66
2022/09/15 09:12:05;;;;;;;0.30;0.30;;;20.10;99.90;;;21.14;70.47;99803.34;4972089;28;20619;-67
2022/09/15 09:15:10;;;;;;;0.30;0.30;;;20.10;99.90;;;21.56;70.03;99803.09;4978960;28;20665;-68
2022/09/15 09:17:40;;;;;;;0.70;0.70;;;20.20;99.90;;;21.64;69.29;99802.88;4981927;28;21046;-67
2022/09/15 09:20:21;;;;;;;0.30;0.30;;;20.30;99.90;;;21.30;66.67;99803.00;4976591;28;21063;-66
2022/09/15 09:22:52;;;;;;;0.30;0.30;;;20.30;99.90;;;21.17;66.32;99807.47;4976381;28;20694;-67
2022/09/15 09:25:21;;;;;;;0.30;0.30;;;20.10;99.90;;;20.68;64.48;99803.06;4971029;28;20627;-67
2022/09/15 09:27:57;;;;;;;0.30;0.30;;;19.90;99.90;;;20.06;66.74;99810.94;4976343;28;20710;-68
2022/09/15 09:30:26;;;;;;;0.30;0.30;;;19.40;99.90;;;19.90;66.84;99813.88;5002721;28;20633;-68
2022/09/15 09:32:59;;;;;;;0.30;0.30;;;19.20;99.90;;;20.03;66.98;99819.28;4989077;28;20626;-67
2022/09/15 09:35:42;;;;;;;0.30;0.30;;;19.10;99.90;;;19.94;67.90;99817.78;4989849;28;20676;-67
2022/09/15 09:38:18;;;;;;;0.30;0.30;;;19.10;99.90;;;19.99;68.49;99818.03;4970863;28;20623;-67
2022/09/15 09:40:45;;;;;;;0.30;0.30;;;19.00;99.90;;;20.11;68.12;99823.63;4960211;28;20693;-67
2022/09/15 09:43:12;;;;;;;0.30;0.30;;;19.10;99.90;;;20.10;69.31;99820.16;4989408;28;20670;-67
2022/09/15 09:45:39;;;;;;;0.30;0.30;;;19.10;99.90;;;20.43;67.18;99823.09;4986290;28;20622;-67
2022/09/15 09:48:21;;;;;;;0.30;0.30;;;19.30;99.90;;;20.42;67.11;99824.09;4991336;28;20639;-67
2022/09/15 09:50:49;;;;;;;0.30;0.30;;;19.30;99.90;;;20.44;67.01;99830.06;5008714;28;20629;-67
2022/09/15 09:53:22;;;;;;;0.30;0.30;;;19.40;99.90;;;20.53;66.88;99826.22;4993571;28;20658;-66
2022/09/15 09:55:49;;;;;;;0.30;0.30;;;19.40;99.90;;;20.48;66.66;99827.81;4993177;28;20643;-68
2022/09/15 09:58:23;;;;;;;0.30;0.30;;;19.40;99.90;;;20.48;66.30;99823.34;4993022;28;20634;-66
2022/09/15 10:00:51;;;;;;;0.30;0.30;;;19.40;99.90;;;20.48;67.43;99827.81;4993608;28;21018;-66
2022/09/15 10:03:22;;;;;;;0.30;0.30;;;19.40;99.90;;;20.53;66.11;99828.06;4992995;28;20658;-66
2022/09/15 10:06:06;;;;;;;0.30;0.30;;;19.50;99.90;;;20.69;65.74;99822.47;4988637;28;20658;-67
2022/09/15 10:08:35;;;;;;;0.30;0.30;;;19.60;99.90;;;20.83;65.73;99827.63;4980391;28;20693;-68
2022/09/15 10:11:09;;;;;;;0.30;0.30;;;19.70;99.90;;;20.88;64.59;99824.41;4996510;28;20622;-67
2022/09/15 10:13:51;;;;;;;0.30;0.30;;;19.70;99.90;;;20.86;63.36;99827.25;4990296;28;20659;-68
2022/09/15 10:16:19;;;;;;;0.30;0.30;;;19.80;99.90;;;20.80;63.05;99835.19;5007256;28;20673;-67
2022/09/15 10:18:49;;;;;;;0.30;0.30;;;19.70;99.90;;;20.59;63.69;99837.91;4991168;28;20642;-67
2022/09/15 10:21:23;;;;;;;0.30;0.30;;;19.70;99.90;;;20.45;64.67;99833.50;4993424;28;20705;-67
2022/09/15 10:23:50;;;;;;;0.30;0.30;;;19.50;99.90;;;20.73;63.78;99840.44;4990624;28;20674;-68
2022/09/15 10:26:33;;;;;;;0.87;0.87;;;19.60;99.90;;;20.69;62.93;99846.31;4993435;28;20627;-66
2022/09/15 10:29:17;;;;;;;0.30;0.30;;;19.80;99.90;;;21.20;62.23;99849.50;4992236;28;21045;-66
2022/09/15 10:31:45;;;;;;;0.30;0.30;;;19.90;99.90;;;21.57;61.10;99849.03;4993100;28;20614;-66
2022/09/15 10:34:29;;;;;;;0.30;0.30;;;20.30;99.90;;;22.50;57.79;99848.97;4987286;28;20655;-66
2022/09/15 10:37:19;;;;;;;0.30;0.30;;;20.80;99.90;;;22.45;56.67;99853.25;4972807;28;21032;-66
2022/09/15 10:39:58;;;;;;;0.30;0.30;;;21.00;99.90;;;22.35;58.13;99864.31;4971176;28;20663;-67
2022/09/15 10:42:51;;;;;;;0.30;0.30;;;21.00;99.90;;;22.23;56.75;99865.94;4979114;28;20630;-67